Time;durP1;ratioP1;P1;durP2;ratioP2;P2;SDS_P1;SDS_P2;PMS_P1;PMS_P2;Temp;Humidity;BMP_temperature;BMP_pressure;BME280_temperature;BME280_humidity;BME280_pressure;Samples;Min_cycle;Max_cycle;Signal;HPM_P1;HPM_P2
2021/05/05 00:01:50;;;;;;;3.67;3.10;;;8.50;99.90;;;;;;5112802;28;20793;-68
2021/05/05 00:04:19;;;;;;;3.67;3.37;;;8.50;99.90;;;;;;5111725;27;20462;-68
2021/05/05 00:06:46;;;;;;;5.43;3.40;;;8.50;99.90;;;;;;5112618;28;20844;-68
2021/05/05 00:09:13;;;;;;;4.97;4.10;;;8.40;99.90;;;;;;5112321;28;20429;-68
2021/05/05 00:11:40;;;;;;;4.40;4.00;;;8.40;99.90;;;;;;5112554;28;20438;-68
2021/05/05 00:14:08;;;;;;;3.63;3.20;;;8.40;99.90;;;;;;5112690;28;20454;-68
2021/05/05 00:16:35;;;;;;;4.33;3.93;;;8.40;99.90;;;;;;5112324;28;20431;-68
2021/05/05 00:19:02;;;;;;;5.90;3.97;;;8.30;99.90;;;;;;5111950;27;20480;-68
2021/05/05 00:21:34;;;;;;;4.10;3.33;;;8.30;99.90;;;;;;5112311;27;20429;-68
2021/05/05 00:24:01;;;;;;;3.87;3.57;;;8.20;99.90;;;;;;5112255;28;20466;-69
2021/05/05 00:26:28;;;;;;;9.30;4.33;;;8.20;99.90;;;;;;5111610;28;20479;-68
2021/05/05 00:28:55;;;;;;;5.77;4.50;;;8.20;99.90;;;;;;5111928;28;20426;-68
2021/05/05 00:31:21;;;;;;;5.53;4.23;;;8.20;99.90;;;;;;5112126;28;21211;-68
2021/05/05 00:33:48;;;;;;;4.40;4.00;;;8.10;99.90;;;;;;5111892;28;20465;-68
2021/05/05 00:36:15;;;;;;;5.17;4.30;;;8.10;99.90;;;;;;5112385;28;20430;-68
2021/05/05 00:38:42;;;;;;;5.37;4.33;;;8.10;99.90;;;;;;5111734;28;20442;-68
2021/05/05 00:41:11;;;;;;;4.30;3.50;;;8.20;99.90;;;;;;5111967;28;20424;-68
2021/05/05 00:43:38;;;;;;;5.03;4.50;;;8.20;99.90;;;;;;5111730;28;20426;-68
2021/05/05 00:46:05;;;;;;;4.40;4.00;;;8.10;99.90;;;;;;5112092;28;20441;-68
2021/05/05 00:48:32;;;;;;;5.23;3.23;;;8.10;99.90;;;;;;5111661;28;20421;-68
2021/05/05 00:51:01;;;;;;;6.17;4.57;;;8.00;99.90;;;;;;5111858;28;20496;-68
2021/05/05 00:53:28;;;;;;;6.90;4.17;;;7.90;99.90;;;;;;5111765;28;20428;-68
2021/05/05 00:55:56;;;;;;;5.40;3.73;;;7.90;99.90;;;;;;5111478;28;20426;-69
2021/05/05 00:58:23;;;;;;;4.30;3.90;;;7.90;99.90;;;;;;5111868;28;20477;-68
2021/05/05 01:00:51;;;;;;;5.13;3.60;;;7.90;99.90;;;;;;5111669;28;20950;-68
2021/05/05 01:03:19;;;;;;;4.00;3.60;;;7.70;99.90;;;;;;5111611;28;20460;-68
2021/05/05 01:05:45;;;;;;;5.63;4.57;;;7.60;99.90;;;;;;5111299;28;20448;-68
2021/05/05 01:08:14;;;;;;;6.33;4.27;;;7.70;99.90;;;;;;5111523;28;20468;-68
2021/05/05 01:10:41;;;;;;;6.30;3.50;;;7.70;99.90;;;;;;5111247;28;20482;-68
2021/05/05 01:13:09;;;;;;;6.20;4.40;;;7.70;99.90;;;;;;5111378;27;20439;-68
2021/05/05 01:15:36;;;;;;;6.60;5.20;;;7.70;99.90;;;;;;5111355;28;20450;-68
2021/05/05 01:18:03;;;;;;;5.10;4.50;;;7.70;99.90;;;;;;5111542;28;20435;-69
2021/05/05 01:20:30;;;;;;;4.33;3.93;;;7.60;99.90;;;;;;5111015;28;20437;-68
2021/05/05 01:22:58;;;;;;;5.60;4.30;;;7.60;99.90;;;;;;5111361;28;20420;-68
2021/05/05 01:25:25;;;;;;;5.97;3.97;;;7.60;99.90;;;;;;5110987;28;20504;-68
2021/05/05 01:27:52;;;;;;;5.20;4.67;;;7.60;99.90;;;;;;5111110;28;20478;-68
2021/05/05 01:30:20;;;;;;;5.33;4.60;;;7.60;99.90;;;;;;5111250;28;20584;-68
2021/05/05 01:32:47;;;;;;;5.97;4.70;;;7.60;99.90;;;;;;5111366;28;20449;-68
2021/05/05 01:35:16;;;;;;;4.43;4.00;;;7.60;99.90;;;;;;5110924;28;20979;-68
2021/05/05 01:37:43;;;;;;;4.90;4.40;;;7.60;99.90;;;;;;5111273;28;21046;-68
2021/05/05 01:40:17;;;;;;;5.33;4.23;;;7.60;99.90;;;;;;5111205;28;20438;-68
2021/05/05 01:42:43;;;;;;;8.40;4.43;;;7.60;99.90;;;;;;5111250;28;20416;-68
2021/05/05 01:45:11;;;;;;;5.63;4.87;;;7.60;99.90;;;;;;5110998;28;20460;-68
2021/05/05 01:47:39;;;;;;;4.00;3.60;;;7.60;99.90;;;;;;5111058;28;20479;-68
2021/05/05 01:50:07;;;;;;;4.57;4.17;;;7.60;99.90;;;;;;5110649;28;20478;-68
2021/05/05 01:52:33;;;;;;;6.50;4.17;;;7.60;99.90;;;;;;5110982;28;20429;-68
2021/05/05 01:55:00;;;;;;;5.03;3.73;;;7.60;99.90;;;;;;5110953;28;20446;-68
2021/05/05 01:57:38;;;;;;;5.97;4.33;;;7.60;99.90;;;;;;5111133;28;20429;-68
2021/05/05 02:00:09;;;;;;;4.93;4.00;;;7.60;99.90;;;;;;5111070;28;20922;-68
2021/05/05 02:02:36;;;;;;;6.53;3.97;;;7.60;99.90;;;;;;5111072;28;20422;-68
2021/05/05 02:05:05;;;;;;;6.07;5.10;;;7.60;99.90;;;;;;5110597;28;20466;-68
2021/05/05 02:07:31;;;;;;;4.27;3.80;;;7.60;99.90;;;;;;5111320;28;20465;-69
2021/05/05 02:09:58;;;;;;;3.30;3.00;;;7.60;99.90;;;;;;5114757;28;20438;-68
2021/05/05 02:12:25;;;;;;;5.53;4.23;;;7.60;99.90;;;;;;5114815;28;20420;-68
2021/05/05 02:14:53;;;;;;;5.97;4.27;;;7.60;99.90;;;;;;5114869;28;20453;-68
2021/05/05 02:17:20;;;;;;;5.13;4.30;;;7.60;99.90;;;;;;5114622;28;20840;-68
2021/05/05 02:19:46;;;;;;;7.70;5.33;;;7.60;99.90;;;;;;5114208;27;20437;-69
2021/05/05 02:22:13;;;;;;;6.40;4.67;;;7.60;99.90;;;;;;5114689;28;20526;-68
2021/05/05 02:24:40;;;;;;;5.10;4.53;;;7.60;99.90;;;;;;5114613;27;20509;-68
2021/05/05 02:27:07;;;;;;;4.17;3.60;;;7.60;99.90;;;;;;5114489;28;20529;-68
2021/05/05 02:29:34;;;;;;;4.67;4.00;;;7.60;99.90;;;;;;5114345;28;20449;-68
2021/05/05 02:32:04;;;;;;;4.83;4.03;;;7.50;99.90;;;;;;5114338;28;20785;-68
2021/05/05 02:34:31;;;;;;;9.70;4.70;;;7.60;99.90;;;;;;5114190;28;20465;-69
2021/05/05 02:36:57;;;;;;;4.10;3.40;;;7.60;99.90;;;;;;5114286;28;20449;-68
2021/05/05 02:39:24;;;;;;;4.63;4.10;;;7.60;99.90;;;;;;5114181;28;20436;-69
2021/05/05 02:41:51;;;;;;;5.50;4.33;;;7.50;99.90;;;;;;5114441;28;20432;-68
2021/05/05 02:44:18;;;;;;;5.00;3.77;;;7.50;99.90;;;;;;5114680;28;20941;-69
2021/05/05 02:46:45;;;;;;;5.40;4.50;;;7.60;99.90;;;;;;5113985;28;20469;-68
2021/05/05 02:49:12;;;;;;;5.97;4.00;;;7.60;99.90;;;;;;5113947;28;20801;-69
2021/05/05 02:51:39;;;;;;;6.70;3.67;;;7.50;99.90;;;;;;5133612;27;20773;-69
2021/05/05 02:54:06;;;;;;;3.93;3.20;;;7.50;99.90;;;;;;5134612;27;20444;-68
2021/05/05 02:56:33;;;;;;;4.27;3.87;;;7.50;99.90;;;;;;5130377;27;20436;-68
2021/05/05 02:58:59;;;;;;;9.17;3.90;;;7.50;99.90;;;;;;5113952;27;20420;-68
2021/05/05 03:01:26;;;;;;;5.47;3.40;;;7.50;99.90;;;;;;5113818;28;20448;-68
2021/05/05 03:03:53;;;;;;;4.77;3.93;;;7.40;99.90;;;;;;5113872;28;20496;-68
2021/05/05 03:06:20;;;;;;;4.10;3.27;;;7.50;99.90;;;;;;5113612;28;20451;-68
2021/05/05 03:08:47;;;;;;;6.20;3.20;;;7.40;99.90;;;;;;5113717;28;20423;-69
2021/05/05 03:11:14;;;;;;;4.03;3.27;;;7.60;99.90;;;;;;5113872;28;20424;-69
2021/05/05 03:13:41;;;;;;;3.83;3.43;;;7.30;99.90;;;;;;5113372;28;20841;-69
2021/05/05 03:16:09;;;;;;;3.03;2.73;;;7.50;99.90;;;;;;5113729;28;20430;-70
2021/05/05 03:18:36;;;;;;;4.17;3.73;;;7.40;99.90;;;;;;5113179;28;20432;-70
2021/05/05 03:21:03;;;;;;;3.73;3.40;;;7.40;99.90;;;;;;5113277;28;20434;-69
2021/05/05 03:23:30;;;;;;;3.30;2.80;;;7.40;99.90;;;;;;5113403;28;20427;-69
2021/05/05 03:25:57;;;;;;;3.50;3.20;;;7.40;99.90;;;;;;5113466;28;20433;-69
2021/05/05 03:28:24;;;;;;;2.87;2.60;;;7.40;99.90;;;;;;5113283;28;20476;-70
2021/05/05 03:30:50;;;;;;;4.20;2.70;;;7.40;99.90;;;;;;5113195;28;20460;-69
2021/05/05 03:33:17;;;;;;;5.07;2.80;;;7.40;99.90;;;;;;5113435;28;20436;-69
2021/05/05 03:35:44;;;;;;;3.73;3.07;;;7.40;99.90;;;;;;5112942;28;20502;-69
2021/05/05 03:38:11;;;;;;;8.63;2.80;;;7.40;99.90;;;;;;5113209;28;20435;-69
2021/05/05 03:40:38;;;;;;;2.87;2.63;;;7.40;99.90;;;;;;5113075;28;20422;-69
2021/05/05 03:43:05;;;;;;;2.90;2.70;;;7.40;99.90;;;;;;5113039;28;20429;-70
2021/05/05 03:45:32;;;;;;;5.87;4.27;;;7.40;99.90;;;;;;5112908;28;20446;-69
2021/05/05 03:47:59;;;;;;;4.43;2.87;;;7.40;99.90;;;;;;5112918;28;20476;-69
2021/05/05 03:50:26;;;;;;;3.30;3.00;;;7.40;99.90;;;;;;5112617;28;21120;-69
2021/05/05 03:52:53;;;;;;;4.10;3.33;;;7.40;99.90;;;;;;5112889;28;20436;-69
2021/05/05 03:55:21;;;;;;;3.87;3.30;;;7.40;99.90;;;;;;5112706;27;20509;-68
2021/05/05 03:57:48;;;;;;;3.00;2.80;;;7.50;99.90;;;;;;5112846;28;20432;-69
2021/05/05 04:00:17;;;;;;;2.60;2.33;;;7.50;99.90;;;;;;5112579;28;20444;-69
2021/05/05 04:02:43;;;;;;;2.90;2.47;;;7.40;99.90;;;;;;5113094;27;20901;-69
2021/05/05 04:05:11;;;;;;;4.00;2.43;;;7.40;99.90;;;;;;5112311;28;20799;-69
2021/05/05 04:07:38;;;;;;;3.37;3.10;;;7.40;99.90;;;;;;5112652;28;20461;-69
2021/05/05 04:10:07;;;;;;;1.23;1.13;;;7.40;99.90;;;;;;5112209;27;21048;-69
2021/05/05 04:12:33;;;;;;;0.90;0.70;;;7.30;99.90;;;;;;5112515;28;20577;-69
2021/05/05 04:15:01;;;;;;;0.90;0.73;;;7.00;99.90;;;;;;5112268;28;20452;-69
2021/05/05 04:17:28;;;;;;;0.90;0.70;;;6.70;99.90;;;;;;5112561;28;20434;-69
2021/05/05 04:19:56;;;;;;;1.10;0.70;;;6.40;99.90;;;;;;5112168;28;20425;-69
2021/05/05 04:22:24;;;;;;;0.80;0.60;;;6.10;99.90;;;;;;5112168;28;20429;-69
2021/05/05 04:24:51;;;;;;;0.80;0.60;;;6.00;99.90;;;;;;5112112;28;20526;-69
2021/05/05 04:27:18;;;;;;;1.77;0.60;;;5.90;99.90;;;;;;5112314;28;20826;-69
2021/05/05 04:29:45;;;;;;;0.90;0.70;;;5.80;99.90;;;;;;5111895;28;20835;-69
2021/05/05 04:32:14;;;;;;;10.27;0.80;;;5.70;99.90;;;;;;5111870;28;20906;-69
2021/05/05 04:34:41;;;;;;;1.30;0.60;;;5.60;99.90;;;;;;5111962;28;20459;-70
2021/05/05 04:37:07;;;;;;;4.03;0.90;;;5.50;99.90;;;;;;5112024;28;20428;-69
2021/05/05 04:39:34;;;;;;;2.30;0.77;;;5.40;99.90;;;;;;5111831;28;20425;-70
2021/05/05 04:42:01;;;;;;;0.90;0.60;;;5.40;99.90;;;;;;5111911;28;20432;-69
2021/05/05 04:44:28;;;;;;;0.90;0.70;;;5.40;99.90;;;;;;5111863;28;20436;-69
2021/05/05 04:46:55;;;;;;;1.10;0.70;;;5.30;99.90;;;;;;5112023;28;20466;-69
2021/05/05 04:49:22;;;;;;;0.80;0.60;;;5.30;99.90;;;;;;5111226;28;20420;-69
2021/05/05 04:51:49;;;;;;;1.47;0.80;;;5.20;99.90;;;;;;5111862;28;20474;-70
2021/05/05 04:54:16;;;;;;;0.80;0.60;;;5.20;99.90;;;;;;5111641;28;20444;-67
2021/05/05 04:56:43;;;;;;;0.90;0.63;;;5.20;99.90;;;;;;5107025;27;21042;-67
2021/05/05 04:59:09;;;;;;;0.90;0.70;;;5.20;99.90;;;;;;5121629;27;20425;-66
2021/05/05 05:01:36;;;;;;;0.90;0.70;;;5.20;99.90;;;;;;5111541;28;20436;-67
2021/05/05 05:04:03;;;;;;;0.90;0.70;;;5.10;99.90;;;;;;5111659;28;20487;-67
2021/05/05 05:06:30;;;;;;;0.90;0.70;;;5.20;99.90;;;;;;5111381;28;20427;-67
2021/05/05 05:08:57;;;;;;;0.80;0.60;;;5.20;99.90;;;;;;5111645;28;20431;-67
2021/05/05 05:11:24;;;;;;;0.80;0.60;;;5.10;99.90;;;;;;5111522;28;20431;-67
2021/05/05 05:13:50;;;;;;;0.90;0.80;;;5.10;99.90;;;;;;5115697;27;20444;-68
2021/05/05 05:16:17;;;;;;;0.90;0.70;;;5.00;99.90;;;;;;5121096;27;20780;-67
2021/05/05 05:18:44;;;;;;;0.80;0.60;;;4.90;99.90;;;;;;5121970;27;20423;-68
2021/05/05 05:21:11;;;;;;;2.10;0.70;;;4.90;99.90;;;;;;5120598;27;20457;-68
2021/05/05 05:23:39;;;;;;;1.03;0.70;;;4.90;99.90;;;;;;5121179;27;20476;-67
2021/05/05 05:26:05;;;;;;;0.90;0.70;;;5.00;99.90;;;;;;5119812;27;20438;-68
2021/05/05 05:28:32;;;;;;;1.37;0.80;;;5.00;99.90;;;;;;5123663;27;20486;-67
2021/05/05 05:30:59;;;;;;;1.87;0.90;;;5.00;99.90;;;;;;5115892;27;20463;-67
2021/05/05 05:33:27;;;;;;;1.10;0.70;;;5.10;99.90;;;;;;5111297;28;20432;-67
2021/05/05 05:35:53;;;;;;;0.90;0.80;;;5.10;99.90;;;;;;5111143;28;20781;-67
2021/05/05 05:38:20;;;;;;;0.90;0.70;;;5.20;99.90;;;;;;5111304;28;20435;-67
2021/05/05 05:40:48;;;;;;;0.90;0.70;;;5.20;99.90;;;;;;5111018;28;20428;-67
2021/05/05 05:43:14;;;;;;;1.00;0.67;;;5.20;99.90;;;;;;5114628;28;20435;-67
2021/05/05 05:45:41;;;;;;;0.90;0.60;;;5.20;99.90;;;;;;5115411;28;20436;-67
2021/05/05 05:48:09;;;;;;;0.80;0.60;;;5.20;99.90;;;;;;5115398;28;20472;-67
2021/05/05 05:50:35;;;;;;;0.90;0.63;;;5.20;99.90;;;;;;5114991;28;20432;-67
2021/05/05 05:53:02;;;;;;;0.80;0.70;;;5.30;99.90;;;;;;5115342;28;20466;-67
2021/05/05 05:55:31;;;;;;;0.90;0.67;;;5.30;99.90;;;;;;5125148;27;20474;-67
2021/05/05 05:57:58;;;;;;;0.80;0.60;;;5.30;99.90;;;;;;5134144;27;20427;-68
2021/05/05 06:00:26;;;;;;;0.80;0.60;;;5.30;99.90;;;;;;5135161;27;20822;-67
2021/05/05 06:02:52;;;;;;;1.60;0.73;;;5.40;99.90;;;;;;5135351;27;20430;-67
2021/05/05 06:05:19;;;;;;;1.00;0.70;;;5.50;99.90;;;;;;5134608;27;20455;-67
2021/05/05 06:07:46;;;;;;;0.80;0.70;;;5.40;99.90;;;;;;5135441;27;20478;-68
2021/05/05 06:10:13;;;;;;;1.00;0.60;;;5.50;99.90;;;;;;5135264;27;20427;-68
2021/05/05 06:12:41;;;;;;;1.17;0.70;;;5.50;99.90;;;;;;5134447;27;20480;-68
2021/05/05 06:15:10;;;;;;;1.23;0.63;;;5.60;99.90;;;;;;5125947;27;20471;-68
2021/05/05 06:17:37;;;;;;;0.90;0.70;;;5.70;99.90;;;;;;5114523;28;20464;-68
2021/05/05 06:20:05;;;;;;;0.90;0.70;;;5.60;99.90;;;;;;5114185;28;20459;-68
2021/05/05 06:22:33;;;;;;;1.43;0.60;;;5.60;99.90;;;;;;5114578;28;20817;-67
2021/05/05 06:25:00;;;;;;;0.90;0.80;;;5.50;99.90;;;;;;5114533;28;20452;-68
2021/05/05 06:27:27;;;;;;;0.90;0.67;;;5.50;99.90;;;;;;5114113;28;20563;-68
2021/05/05 06:29:54;;;;;;;1.50;0.70;;;5.50;99.90;;;;;;5114356;28;20439;-68
2021/05/05 06:32:21;;;;;;;0.83;0.70;;;5.60;99.90;;;;;;5114440;28;20469;-68
2021/05/05 06:34:49;;;;;;;1.07;0.80;;;5.60;99.90;;;;;;5113846;28;20464;-69
2021/05/05 06:37:16;;;;;;;1.83;0.70;;;5.70;99.90;;;;;;5114600;28;21080;-68
2021/05/05 06:39:43;;;;;;;1.00;0.70;;;5.70;99.90;;;;;;5114361;28;20489;-68
2021/05/05 06:42:10;;;;;;;1.00;0.80;;;5.80;99.90;;;;;;5114073;28;20439;-68
2021/05/05 06:44:37;;;;;;;1.20;0.90;;;5.90;99.90;;;;;;5114109;28;20445;-68
2021/05/05 06:47:04;;;;;;;0.87;0.70;;;5.80;99.90;;;;;;5113692;27;20490;-68
2021/05/05 06:49:33;;;;;;;4.20;0.90;;;5.80;99.90;;;;;;5118453;27;20420;-67
2021/05/05 06:52:00;;;;;;;1.10;0.80;;;5.80;99.90;;;;;;5134267;27;20530;-68
2021/05/05 06:54:26;;;;;;;1.20;0.70;;;5.90;99.90;;;;;;5133355;27;20439;-68
2021/05/05 06:56:53;;;;;;;0.80;0.60;;;6.10;99.90;;;;;;5127252;27;20966;-68
2021/05/05 06:59:20;;;;;;;1.67;0.90;;;6.00;99.90;;;;;;5111948;28;20420;-69
2021/05/05 07:01:46;;;;;;;1.10;0.70;;;6.00;99.90;;;;;;5111955;27;20618;-68
2021/05/05 07:04:13;;;;;;;0.90;0.73;;;6.00;99.90;;;;;;5111676;28;20538;-68
2021/05/05 07:06:56;;;;;;;0.93;0.73;;;6.00;99.90;;;;;;5111745;28;20831;-69
2021/05/05 07:09:22;;;;;;;1.53;0.80;;;6.00;99.90;;;;;;5110876;28;20477;-67
2021/05/05 07:11:49;;;;;;;1.37;0.80;;;5.90;99.90;;;;;;5112316;28;20948;-69
2021/05/05 07:14:16;;;;;;;3.53;1.03;;;5.90;99.90;;;;;;5113123;28;20447;-68
2021/05/05 07:16:43;;;;;;;1.73;0.90;;;5.90;99.90;;;;;;5113411;28;20436;-68
2021/05/05 07:19:09;;;;;;;0.87;0.63;;;5.80;99.90;;;;;;5113117;27;20430;-68
2021/05/05 07:21:36;;;;;;;1.07;0.80;;;5.80;99.90;;;;;;5112876;28;20440;-68
2021/05/05 07:24:04;;;;;;;1.20;0.73;;;5.70;99.90;;;;;;5113368;28;20460;-69
2021/05/05 07:26:30;;;;;;;6.23;0.90;;;5.80;99.90;;;;;;5113230;28;20879;-68
2021/05/05 07:29:05;;;;;;;0.93;0.80;;;5.90;99.90;;;;;;5113124;28;20420;-68
2021/05/05 07:31:32;;;;;;;1.77;0.73;;;5.80;99.90;;;;;;5113151;28;20491;-69
2021/05/05 07:34:00;;;;;;;1.10;1.00;;;5.80;99.90;;;;;;5112851;28;20464;-69
2021/05/05 07:36:28;;;;;;;0.90;0.80;;;5.80;99.90;;;;;;5113114;27;20424;-68
2021/05/05 07:47:24;;;;;;;0.90;0.70;;;5.70;99.90;;;;;;5112900;28;20587;-69
2021/05/05 07:49:54;;;;;;;6.57;3.27;;;5.70;99.90;;;;;;5120369;27;20451;-69
2021/05/05 07:52:21;;;;;;;1.67;1.57;;;5.60;99.90;;;;;;5133530;27;20436;-69
2021/05/05 07:54:48;;;;;;;5.33;2.50;;;5.70;99.90;;;;;;5133353;27;20446;-69
2021/05/05 07:57:18;;;;;;;1.00;0.90;;;5.80;99.90;;;;;;5131732;27;20438;-70
2021/05/05 07:59:45;;;;;;;5.90;3.30;;;5.80;99.90;;;;;;5123691;27;20443;-69
2021/05/05 08:02:13;;;;;;;2.27;2.17;;;5.90;99.90;;;;;;5112563;28;20425;-69
2021/05/05 08:04:48;;;;;;;1.07;0.97;;;6.00;99.90;;;;;;5112321;28;20460;-69
2021/05/05 08:07:15;;;;;;;1.30;1.20;;;6.00;99.90;;;;;;5111571;28;20509;-69
2021/05/05 08:09:42;;;;;;;1.70;1.40;;;6.10;99.90;;;;;;5112303;28;20453;-69
2021/05/05 08:12:09;;;;;;;1.33;1.23;;;6.10;99.90;;;;;;5112322;28;20485;-69
2021/05/05 08:14:37;;;;;;;2.20;2.00;;;6.10;99.90;;;;;;5112201;28;20458;-69
2021/05/05 08:17:04;;;;;;;3.47;3.27;;;6.10;99.90;;;;;;5112192;28;20438;-68
2021/05/05 08:19:30;;;;;;;3.87;2.87;;;6.10;99.90;;;;;;5112095;28;20433;-69
2021/05/05 08:21:57;;;;;;;1.40;1.30;;;6.10;99.90;;;;;;5111813;28;20855;-69
2021/05/05 08:24:24;;;;;;;1.73;1.63;;;6.10;99.90;;;;;;5112278;28;20455;-69
2021/05/05 08:26:50;;;;;;;2.10;1.50;;;6.00;99.90;;;;;;5112051;27;20421;-69
2021/05/05 08:29:17;;;;;;;2.37;2.17;;;6.00;99.90;;;;;;5112173;28;20432;-69
2021/05/05 08:31:45;;;;;;;1.27;0.90;;;6.10;99.90;;;;;;5112088;28;20937;-69
2021/05/05 08:34:12;;;;;;;3.83;2.60;;;6.00;99.90;;;;;;5112211;28;20801;-69
2021/05/05 08:36:39;;;;;;;1.10;1.00;;;5.90;99.90;;;;;;5111479;28;20428;-69
2021/05/05 08:39:08;;;;;;;1.00;0.90;;;5.80;99.90;;;;;;5111658;28;20428;-69
2021/05/05 08:41:37;;;;;;;1.87;1.77;;;5.70;99.90;;;;;;5111694;28;20416;-68
2021/05/05 08:44:07;;;;;;;3.40;1.37;;;5.70;99.90;;;;;;5111725;28;20448;-69
2021/05/05 08:46:34;;;;;;;1.20;0.90;;;5.80;99.90;;;;;;5111697;28;20416;-69
2021/05/05 08:49:02;;;;;;;1.80;1.50;;;5.70;99.90;;;;;;5112286;28;20428;-69
2021/05/05 08:51:28;;;;;;;0.90;0.70;;;5.40;99.90;;;;;;5132093;27;20452;-70
2021/05/05 08:53:55;;;;;;;1.00;0.80;;;5.10;99.90;;;;;;5132001;27;20450;-69
2021/05/05 08:56:22;;;;;;;2.80;0.90;;;4.80;99.90;;;;;;5132165;27;20427;-70
2021/05/05 08:58:49;;;;;;;0.90;0.70;;;4.50;99.90;;;;;;5125439;27;20441;-70
2021/05/05 09:01:15;;;;;;;1.77;1.20;;;4.30;99.90;;;;;;5120497;27;20432;-69
2021/05/05 09:03:43;;;;;;;1.20;1.10;;;4.10;99.90;;;;;;5111567;28;20455;-69
2021/05/05 09:06:11;;;;;;;1.33;1.23;;;4.00;99.90;;;;;;5111367;28;20515;-70
2021/05/05 09:08:47;;;;;;;1.40;1.20;;;3.90;99.90;;;;;;5111282;27;20524;-69
2021/05/05 09:11:17;;;;;;;2.40;1.17;;;3.90;99.90;;;;;;5111740;28;20500;-68
2021/05/05 09:13:51;;;;;;;1.13;1.03;;;3.90;99.90;;;;;;5109718;28;20468;-69
2021/05/05 09:16:24;;;;;;;2.23;2.03;;;4.00;99.90;;;;;;5110826;28;20925;-69
2021/05/05 09:18:54;;;;;;;1.93;1.50;;;4.10;99.90;;;;;;5111060;28;20425;-69
2021/05/05 09:21:31;;;;;;;1.37;1.27;;;4.10;99.90;;;;;;5111131;28;20435;-69
2021/05/05 09:24:29;;;;;;;5.43;1.20;;;4.20;99.90;;;;;;5111303;28;20535;-69
2021/05/05 09:26:59;;;;;;;4.30;1.90;;;4.30;99.90;;;;;;5111560;28;20446;-69
2021/05/05 09:29:41;;;;;;;2.70;1.40;;;4.40;99.90;;;;;;5109920;28;20444;-69
2021/05/05 09:32:10;;;;;;;1.43;1.33;;;4.50;99.90;;;;;;5111311;28;20805;-70
2021/05/05 09:34:37;;;;;;;2.90;1.73;;;4.70;99.90;;;;;;5110988;28;20456;-69
2021/05/05 09:37:07;;;;;;;2.70;1.50;;;4.80;99.90;;;;;;5110784;28;20424;-69
2021/05/05 09:39:38;;;;;;;1.60;1.37;;;4.90;99.90;;;;;;5110880;28;20440;-70
2021/05/05 09:42:23;;;;;;;1.90;1.17;;;4.90;99.90;;;;;;5116557;27;20454;-69
2021/05/05 09:44:54;;;;;;;1.27;1.17;;;5.00;99.90;;;;;;5114835;27;21034;-67
2021/05/05 09:47:20;;;;;;;1.07;0.97;;;5.20;99.90;;;;;;5110962;28;20470;-67
2021/05/05 09:49:47;;;;;;;1.13;1.03;;;5.50;99.90;;;;;;5118014;28;20439;-66
2021/05/05 09:52:24;;;;;;;6.23;2.90;;;5.70;99.90;;;;;;5131275;28;20814;-67
2021/05/05 09:54:56;;;;;;;3.20;2.57;;;6.00;99.90;;;;;;5131465;27;20447;-67
2021/05/05 09:57:24;;;;;;;2.90;1.63;;;6.30;99.90;;;;;;5131922;27;20428;-67
2021/05/05 10:00:04;;;;;;;1.93;1.73;;;6.50;99.90;;;;;;5131283;27;20436;-67
2021/05/05 10:02:41;;;;;;;1.43;1.30;;;6.70;99.90;;;;;;5123874;27;21002;-67
2021/05/05 10:05:09;;;;;;;4.20;1.97;;;6.80;99.90;;;;;;5124904;27;20470;-67
2021/05/05 10:07:55;;;;;;;2.97;2.03;;;6.80;99.90;;;;;;5125122;27;20990;-67
2021/05/05 10:10:25;;;;;;;1.63;1.53;;;7.20;99.90;;;;;;5118669;28;20439;-67
2021/05/05 10:12:53;;;;;;;3.43;2.27;;;7.60;99.90;;;;;;5122317;28;20462;-67
2021/05/05 10:15:20;;;;;;;8.20;2.00;;;8.00;99.90;;;;;;5121243;28;20459;-66
2021/05/05 10:17:49;;;;;;;3.43;2.07;;;8.20;99.90;;;;;;5119643;27;21035;-67
2021/05/05 10:20:18;;;;;;;2.17;1.47;;;8.60;99.90;;;;;;5119991;27;20437;-65
2021/05/05 10:22:45;;;;;;;1.77;1.57;;;8.60;99.90;;;;;;5121481;28;20488;-66
2021/05/05 10:25:17;;;;;;;7.30;1.40;;;8.90;99.90;;;;;;5119682;28;20960;-66
2021/05/05 10:27:44;;;;;;;2.20;1.83;;;8.80;99.90;;;;;;5119817;27;20473;-66
2021/05/05 10:30:14;;;;;;;5.47;2.00;;;9.00;99.90;;;;;;5124169;27;20433;-67
2021/05/05 10:32:45;;;;;;;1.87;1.73;;;8.90;99.90;;;;;;5122657;27;20428;-66
2021/05/05 10:35:16;;;;;;;2.03;1.80;;;9.00;99.90;;;;;;5125652;27;20470;-66
2021/05/05 10:37:45;;;;;;;3.00;1.50;;;8.80;99.90;;;;;;5123584;27;20984;-66
2021/05/05 10:40:21;;;;;;;2.10;1.70;;;8.50;99.90;;;;;;5125757;27;20434;-66
2021/05/05 10:42:53;;;;;;;1.37;1.27;;;8.40;99.90;;;;;;5124652;27;20429;-66
2021/05/05 10:45:28;;;;;;;5.00;3.43;;;8.20;99.90;;;;;;5124019;27;20437;-66
2021/05/05 10:48:07;;;;;;;6.27;3.70;;;8.50;99.90;;;;;;5113570;28;20459;-66
2021/05/05 10:50:59;;;;;;;1.47;1.37;;;8.30;99.90;;;;;;5117308;27;20433;-67
2021/05/05 10:53:27;;;;;;;1.70;1.27;;;8.00;99.90;;;;;;5133388;27;20435;-66
2021/05/05 10:55:56;;;;;;;3.17;1.93;;;7.80;99.90;;;;;;5134836;27;20800;-66
2021/05/05 10:58:25;;;;;;;4.30;2.20;;;7.80;99.90;;;;;;5134371;27;20437;-66
2021/05/05 11:00:58;;;;;;;2.77;1.93;;;7.70;99.90;;;;;;5134205;27;20936;-66
2021/05/05 11:04:02;;;;;;;1.80;1.60;;;7.70;99.90;;;;;;5125418;27;20989;-66
2021/05/05 11:06:51;;;;;;;2.57;1.40;;;7.70;99.90;;;;;;5113672;28;20793;-66
2021/05/05 11:09:41;;;;;;;1.30;1.20;;;7.90;99.90;;;;;;5113738;28;20427;-66
2021/05/05 11:12:47;;;;;;;5.90;1.80;;;8.40;99.90;;;;;;5113985;28;20482;-66
2021/05/05 11:15:14;;;;;;;2.10;1.30;;;9.00;99.90;;;;;;5113758;28;20507;-66
2021/05/05 11:17:41;;;;;;;2.00;1.50;;;9.50;99.90;;;;;;5113864;27;20434;-65
2021/05/05 11:20:09;;;;;;;2.87;1.67;;;9.60;99.90;;;;;;5113442;28;20425;-67
2021/05/05 11:22:46;;;;;;;2.17;1.80;;;9.80;99.90;;;;;;5113317;28;20420;-66
2021/05/05 11:25:22;;;;;;;1.43;1.00;;;9.60;99.90;;;;;;5113411;28;20468;-67
2021/05/05 11:27:52;;;;;;;1.70;1.13;;;9.50;99.90;;;;;;5113198;28;20554;-65
2021/05/05 11:30:39;;;;;;;1.80;1.17;;;9.50;99.90;;;;;;5113361;28;20434;-67
2021/05/05 11:33:07;;;;;;;1.77;1.00;;;9.30;99.90;;;;;;5113456;28;20995;-67
2021/05/05 11:35:34;;;;;;;1.60;1.17;;;9.40;99.90;;;;;;5113212;28;20442;-67
2021/05/05 11:38:18;;;;;;;1.53;1.37;;;9.50;99.90;;;;;;5113304;28;21006;-66
2021/05/05 11:40:52;;;;;;;4.03;1.87;;;9.20;99.90;;;;;;5117544;27;20469;-67
2021/05/05 11:43:24;;;;;;;4.20;1.40;;;9.50;99.90;;;;;;5133613;27;20457;-67
2021/05/05 11:45:53;;;;;;;1.50;1.23;;;9.40;99.90;;;;;;5133455;27;20484;-67
2021/05/05 11:48:28;;;;;;;2.07;1.00;;;9.70;99.90;;;;;;5132808;27;20523;-67
2021/05/05 11:50:55;;;;;;;3.50;1.40;;;10.00;99.90;;;;;;5132857;27;20436;-67
2021/05/05 11:53:36;;;;;;;2.53;1.17;;;10.10;99.90;;;;;;5133421;27;20424;-69
2021/05/05 11:56:14;;;;;;;1.43;1.17;;;10.10;99.90;;;;;;5133581;27;20439;-68
2021/05/05 11:58:42;;;;;;;2.53;1.03;;;10.10;99.90;;;;;;5132950;27;20427;-67
2021/05/05 12:01:09;;;;;;;1.20;0.87;;;9.70;97.80;;;;;;5133418;27;20447;-67
2021/05/05 12:03:35;;;;;;;1.20;1.00;;;9.20;97.10;;;;;;5126279;27;20804;-66
2021/05/05 12:06:02;;;;;;;2.73;1.53;;;8.50;99.20;;;;;;5122122;27;20441;-67
2021/05/05 12:08:33;;;;;;;2.60;1.53;;;8.40;99.90;;;;;;5112548;28;20939;-66
2021/05/05 12:11:02;;;;;;;3.47;1.97;;;8.40;99.90;;;;;;5112284;28;20521;-67
2021/05/05 12:13:31;;;;;;;2.50;1.30;;;8.30;99.90;;;;;;5112216;28;20949;-67
2021/05/05 12:16:07;;;;;;;4.43;1.50;;;8.20;99.90;;;;;;5112470;28;20430;-67
2021/05/05 12:18:45;;;;;;;3.10;1.20;;;8.10;99.90;;;;;;5112258;28;20429;-67
2021/05/05 12:21:14;;;;;;;4.97;1.67;;;8.20;99.90;;;;;;5111858;28;20432;-67
2021/05/05 12:23:41;;;;;;;3.00;1.63;;;8.20;99.90;;;;;;5112063;28;20421;-66
2021/05/05 12:26:19;;;;;;;1.47;1.37;;;8.50;99.90;;;;;;5112061;28;20793;-66
2021/05/05 12:28:47;;;;;;;2.50;1.37;;;9.00;99.90;;;;;;5111943;28;20487;-66
2021/05/05 12:31:16;;;;;;;4.50;1.03;;;9.20;99.90;;;;;;5112081;28;20429;-70
2021/05/05 12:33:44;;;;;;;7.60;1.40;;;9.50;99.90;;;;;;5115401;27;20567;-70
2021/05/05 12:36:13;;;;;;;1.70;1.00;;;10.00;99.90;;;;;;5132227;27;20439;-69
2021/05/05 12:38:42;;;;;;;2.33;1.00;;;10.30;99.90;;;;;;5132502;27;20435;-68
2021/05/05 12:41:11;;;;;;;5.17;1.40;;;10.50;99.90;;;;;;5117214;27;20804;-68
2021/05/05 12:43:38;;;;;;;5.20;1.07;;;10.50;99.90;;;;;;5122167;27;20526;-67
2021/05/05 12:46:19;;;;;;;2.60;1.03;;;10.50;98.40;;;;;;5118186;27;20427;-68
2021/05/05 12:48:47;;;;;;;2.63;1.40;;;10.90;99.90;;;;;;5111482;28;20464;-68
2021/05/05 12:51:15;;;;;;;3.30;1.27;;;10.80;99.90;;;;;;5110901;28;20527;-68
2021/05/05 12:53:50;;;;;;;2.63;1.13;;;11.00;99.90;;;;;;5111782;28;20421;-68
2021/05/05 12:56:17;;;;;;;1.27;1.00;;;11.20;99.80;;;;;;5111772;28;21099;-68
2021/05/05 12:58:46;;;;;;;1.93;1.00;;;11.10;99.90;;;;;;5119507;27;20436;-68
2021/05/05 13:01:14;;;;;;;4.63;1.77;;;11.20;99.10;;;;;;5119726;27;20426;-67
2021/05/05 13:03:42;;;;;;;1.57;1.00;;;11.30;99.40;;;;;;5122260;27;20431;-68
2021/05/05 13:06:14;;;;;;;6.97;1.63;;;11.30;96.00;;;;;;5121073;27;20435;-68
2021/05/05 13:08:45;;;;;;;1.23;1.13;;;11.30;98.10;;;;;;5120150;27;20464;-69
2021/05/05 13:11:27;;;;;;;3.90;1.17;;;11.30;95.70;;;;;;5123150;27;20515;-68
2021/05/05 13:14:00;;;;;;;4.00;1.37;;;11.20;94.10;;;;;;5127514;27;20447;-69